createdAt,value
2018-08-13T00:00:53.339Z,2.50
2018-08-13T00:03:19.933Z,2.53
2018-08-13T00:05:46.308Z,2.43
2018-08-13T00:08:12.678Z,2.40
2018-08-13T00:10:39.003Z,2.10
2018-08-13T00:13:05.317Z,2.57
2018-08-13T00:15:31.667Z,2.70
2018-08-13T00:17:58.034Z,2.60
2018-08-13T00:20:24.374Z,2.60
2018-08-13T00:22:50.699Z,2.60
2018-08-13T00:25:17.021Z,2.63
2018-08-13T00:27:43.424Z,2.33
2018-08-13T00:30:09.801Z,2.70
2018-08-13T00:32:36.149Z,2.37
2018-08-13T00:35:02.511Z,2.30
2018-08-13T00:37:29.094Z,2.43
2018-08-13T00:39:55.498Z,2.63
2018-08-13T00:42:21.920Z,2.50
2018-08-13T00:44:48.340Z,2.47
2018-08-13T00:47:14.680Z,2.33
2018-08-13T00:49:41.017Z,2.33
2018-08-13T00:52:07.358Z,2.30
2018-08-13T00:54:33.688Z,2.30
2018-08-13T00:57:00.160Z,2.63
2018-08-13T00:59:26.492Z,2.40
2018-08-13T01:01:52.871Z,2.33
2018-08-13T01:04:19.239Z,2.37
2018-08-13T01:06:45.643Z,2.20
2018-08-13T01:09:12.079Z,2.50
2018-08-13T01:11:38.455Z,2.80
2018-08-13T01:14:04.868Z,2.30
2018-08-13T01:16:31.378Z,2.30
2018-08-13T01:18:57.755Z,2.43
2018-08-13T01:21:24.140Z,2.13
2018-08-13T01:23:50.472Z,2.23
2018-08-13T01:26:16.869Z,2.50
2018-08-13T01:28:43.263Z,2.20
2018-08-13T01:31:09.694Z,2.33
2018-08-13T01:33:36.027Z,2.60
2018-08-13T01:36:02.694Z,2.30
2018-08-13T01:38:29.024Z,2.33
2018-08-13T01:40:55.423Z,2.67
2018-08-13T01:43:21.751Z,2.30
2018-08-13T01:45:48.078Z,2.30
2018-08-13T01:48:14.514Z,2.60
2018-08-13T01:50:40.899Z,2.70
2018-08-13T01:53:07.364Z,2.50
2018-08-13T01:55:33.723Z,2.70
2018-08-13T01:58:00.051Z,2.40
2018-08-13T02:00:26.409Z,2.40
2018-08-13T02:02:52.885Z,2.40
2018-08-13T02:05:19.255Z,2.20
2018-08-13T02:07:45.593Z,2.60
2018-08-13T02:10:11.906Z,2.50
2018-08-13T02:12:38.342Z,2.70
2018-08-13T02:15:04.878Z,2.70
2018-08-13T02:17:31.314Z,2.53
2018-08-13T02:19:57.703Z,2.40
2018-08-13T02:22:24.045Z,2.40
2018-08-13T02:24:50.432Z,2.50
2018-08-13T02:27:16.767Z,2.33
2018-08-13T02:29:43.142Z,2.63
2018-08-13T02:32:09.543Z,2.30
2018-08-13T02:34:35.931Z,2.70
2018-08-13T02:37:02.273Z,2.90
2018-08-13T02:39:28.660Z,2.70
2018-08-13T02:41:55.055Z,2.60
2018-08-13T02:44:21.583Z,2.60
2018-08-13T02:46:47.960Z,2.50
2018-08-13T02:49:14.388Z,2.50
2018-08-13T02:51:40.901Z,2.50
2018-08-13T02:54:07.347Z,2.70
2018-08-13T02:56:33.698Z,2.70
2018-08-13T02:59:00.069Z,2.57
2018-08-13T03:01:26.459Z,2.23
2018-08-13T03:03:52.822Z,2.30
2018-08-13T03:06:19.203Z,2.53
2018-08-13T03:08:45.571Z,2.43
2018-08-13T03:11:11.942Z,2.77
2018-08-13T03:13:38.335Z,2.30
2018-08-13T03:16:04.750Z,2.60
2018-08-13T03:18:31.135Z,2.50
2018-08-13T03:20:57.511Z,2.50
2018-08-13T03:23:23.844Z,2.57
2018-08-13T03:25:50.307Z,2.40
2018-08-13T03:28:16.704Z,2.50
2018-08-13T03:30:43.144Z,2.30
2018-08-13T03:33:09.484Z,2.50
2018-08-13T03:35:35.871Z,2.57
2018-08-13T03:38:02.310Z,2.67
2018-08-13T03:40:28.705Z,2.20
2018-08-13T03:42:55.108Z,2.63
2018-08-13T03:45:21.475Z,2.50
2018-08-13T03:47:47.798Z,2.83
2018-08-13T03:50:14.262Z,2.40
2018-08-13T03:52:40.628Z,2.50
2018-08-13T03:55:06.995Z,2.80
2018-08-13T03:57:33.352Z,2.50
2018-08-13T03:59:59.733Z,2.20
2018-08-13T04:02:26.310Z,2.70
2018-08-13T04:04:52.832Z,2.60
2018-08-13T04:07:19.257Z,2.60
2018-08-13T04:09:45.587Z,2.77
2018-08-13T04:12:12.025Z,2.87
2018-08-13T04:14:38.483Z,2.40
2018-08-13T04:17:04.816Z,2.83
2018-08-13T04:19:31.199Z,2.50
2018-08-13T04:21:57.521Z,2.70
2018-08-13T04:24:23.881Z,2.70
2018-08-13T04:26:50.380Z,2.63
2018-08-13T04:29:16.776Z,2.70
2018-08-13T04:31:43.178Z,2.97
2018-08-13T04:34:09.539Z,2.80
2018-08-13T04:36:35.897Z,3.20
2018-08-13T04:39:02.265Z,3.50
2018-08-13T04:41:28.599Z,2.93
2018-08-13T04:43:54.986Z,3.00
2018-08-13T04:46:21.329Z,3.27
2018-08-13T04:48:47.705Z,3.47
2018-08-13T04:51:14.086Z,3.33
2018-08-13T04:53:40.435Z,3.10
2018-08-13T04:56:07.053Z,3.53
2018-08-13T04:58:33.431Z,3.13
2018-08-13T05:00:59.785Z,2.63
2018-08-13T05:03:26.192Z,3.40
2018-08-13T05:05:52.521Z,3.03
2018-08-13T05:08:18.846Z,3.17
2018-08-13T05:10:45.255Z,2.90
2018-08-13T05:13:11.723Z,3.30
2018-08-13T05:15:38.079Z,3.00
2018-08-13T05:18:04.488Z,2.93
2018-08-13T05:20:30.838Z,3.37
2018-08-13T05:22:57.216Z,3.10
2018-08-13T05:25:23.581Z,3.10
2018-08-13T05:27:49.991Z,3.47
2018-08-13T05:30:16.495Z,2.80
2018-08-13T05:32:42.932Z,2.70
2018-08-13T05:35:09.301Z,2.60
2018-08-13T05:37:35.811Z,3.07
2018-08-13T05:40:02.188Z,3.70
2018-08-13T05:42:28.714Z,3.40
2018-08-13T05:44:55.133Z,2.90
2018-08-13T05:47:21.570Z,3.20
2018-08-13T05:49:47.928Z,3.33
2018-08-13T05:52:14.299Z,3.27
2018-08-13T05:54:40.792Z,3.83
2018-08-13T05:57:07.406Z,3.00
2018-08-13T05:59:33.855Z,2.97
2018-08-13T06:02:00.207Z,3.30
2018-08-13T06:04:26.627Z,2.77
2018-08-13T06:06:53.038Z,3.20
2018-08-13T06:09:19.376Z,3.10
2018-08-13T06:11:45.855Z,3.80
2018-08-13T06:14:12.146Z,3.13
2018-08-13T06:16:38.483Z,3.57
2018-08-13T06:19:04.835Z,3.10
2018-08-13T06:21:31.285Z,3.40
2018-08-13T06:23:57.692Z,3.60
2018-08-13T06:26:24.101Z,3.27
2018-08-13T06:28:50.497Z,3.47
2018-08-13T06:31:16.887Z,3.60
2018-08-13T06:33:43.332Z,3.27
2018-08-13T06:36:09.959Z,3.43
2018-08-13T06:38:36.360Z,3.97
2018-08-13T06:41:02.910Z,3.40
2018-08-13T06:43:30.023Z,3.77
2018-08-13T06:45:56.468Z,3.20
2018-08-13T06:48:22.862Z,3.07
2018-08-13T06:50:49.238Z,4.47
2018-08-13T06:53:15.600Z,3.70
2018-08-13T06:55:41.995Z,3.90
2018-08-13T06:58:08.366Z,3.90
2018-08-13T07:00:34.880Z,3.80
2018-08-13T07:03:01.283Z,3.80
2018-08-13T07:05:27.614Z,3.20
2018-08-13T07:07:53.990Z,3.73
2018-08-13T07:10:20.407Z,3.67
2018-08-13T07:12:46.830Z,3.57
2018-08-13T07:15:13.255Z,4.03
2018-08-13T07:17:39.650Z,3.97
2018-08-13T07:20:06.036Z,3.57
2018-08-13T07:22:32.499Z,4.77
2018-08-13T07:24:58.817Z,4.10
2018-08-13T07:27:26.305Z,4.20
2018-08-13T07:29:52.736Z,3.10
2018-08-13T07:32:19.202Z,3.40
2018-08-13T07:34:45.611Z,3.63
2018-08-13T07:37:12.085Z,3.70
2018-08-13T07:39:38.449Z,3.50
2018-08-13T07:42:04.911Z,4.20
2018-08-13T07:44:31.375Z,3.60
2018-08-13T07:46:57.941Z,3.70
2018-08-13T07:49:24.539Z,3.30
2018-08-13T07:51:51.074Z,3.80
2018-08-13T07:54:17.366Z,3.67
2018-08-13T07:56:44.005Z,3.73
2018-08-13T07:59:10.518Z,3.47
2018-08-13T08:01:37.140Z,3.47
2018-08-13T08:04:03.492Z,3.50
2018-08-13T08:06:29.909Z,3.47
2018-08-13T08:08:56.308Z,3.73
2018-08-13T08:11:23.587Z,3.60
2018-08-13T08:13:49.953Z,3.13
2018-08-13T08:16:16.425Z,3.60
2018-08-13T08:18:43.010Z,4.03
2018-08-13T08:21:09.392Z,3.63
2018-08-13T08:23:35.873Z,3.80
2018-08-13T08:26:02.220Z,4.10
2018-08-13T08:28:28.618Z,4.07
2018-08-13T08:30:55.087Z,4.10
2018-08-13T08:33:21.461Z,4.20
2018-08-13T08:35:47.858Z,4.30
2018-08-13T08:38:14.325Z,3.70
2018-08-13T08:40:40.799Z,3.50
2018-08-13T08:43:07.087Z,4.43
2018-08-13T08:45:33.421Z,4.20
2018-08-13T08:47:59.946Z,3.80
2018-08-13T08:50:26.318Z,3.83
2018-08-13T08:52:52.697Z,4.07
2018-08-13T08:55:19.100Z,4.07
2018-08-13T08:57:45.505Z,4.10
2018-08-13T09:00:11.866Z,3.87
2018-08-13T09:02:38.274Z,3.97
2018-08-13T09:05:04.689Z,4.57
2018-08-13T09:07:31.081Z,4.30
2018-08-13T09:09:57.440Z,3.80
2018-08-13T09:12:24.115Z,3.47
2018-08-13T09:14:50.446Z,3.73
2018-08-13T09:17:16.836Z,3.30
2018-08-13T09:19:43.198Z,3.50
2018-08-13T09:22:09.703Z,3.23
2018-08-13T09:24:36.077Z,3.53
2018-08-13T09:27:02.522Z,3.57
2018-08-13T09:29:28.929Z,3.63
2018-08-13T09:31:55.376Z,3.83
2018-08-13T09:34:21.769Z,4.20
2018-08-13T09:36:48.320Z,4.27
2018-08-13T09:39:14.581Z,4.40
2018-08-13T09:41:41.014Z,3.80
2018-08-13T09:44:07.480Z,4.70
2018-08-13T09:46:33.906Z,3.77
2018-08-13T09:49:00.411Z,3.70
2018-08-13T09:51:26.946Z,3.70
2018-08-13T09:53:53.491Z,3.60
2018-08-13T09:56:20.019Z,3.80
2018-08-13T09:58:46.457Z,3.80
2018-08-13T10:01:12.896Z,4.07
2018-08-13T10:03:39.325Z,3.83
2018-08-13T10:06:05.734Z,4.13
2018-08-13T10:08:32.091Z,3.43
2018-08-13T10:10:58.565Z,3.13
2018-08-13T10:13:24.817Z,3.60
2018-08-13T10:15:51.151Z,3.30
2018-08-13T10:18:17.497Z,4.67
2018-08-13T10:20:43.916Z,3.77
2018-08-13T10:23:10.289Z,3.33
2018-08-13T10:25:36.723Z,3.40
2018-08-13T10:28:03.056Z,4.00
2018-08-13T10:30:29.488Z,3.73
2018-08-13T10:32:55.890Z,3.80
2018-08-13T10:35:22.300Z,3.50
2018-08-13T10:37:48.737Z,3.30
2018-08-13T10:40:15.086Z,3.70
2018-08-13T10:42:41.539Z,3.23
2018-08-13T10:45:07.908Z,3.50
2018-08-13T10:47:35.114Z,3.13
2018-08-13T10:50:01.596Z,3.20
2018-08-13T10:52:28.071Z,3.00
2018-08-13T10:54:54.607Z,3.20
2018-08-13T10:57:21.064Z,3.30
2018-08-13T10:59:47.600Z,3.43
2018-08-13T11:02:13.982Z,3.10
2018-08-13T11:04:40.383Z,3.20
2018-08-13T11:07:06.807Z,2.90
2018-08-13T11:09:33.250Z,3.43
2018-08-13T11:11:59.611Z,4.13
2018-08-13T11:14:25.994Z,3.10
2018-08-13T11:16:52.429Z,3.03
2018-08-13T11:19:18.834Z,3.23
2018-08-13T11:21:45.274Z,3.63
2018-08-13T11:24:11.653Z,3.43
2018-08-13T11:26:38.284Z,3.30
2018-08-13T11:29:04.692Z,2.97
2018-08-13T11:31:31.047Z,3.70
2018-08-13T11:33:57.451Z,3.50
2018-08-13T11:36:23.831Z,3.10
2018-08-13T11:38:50.211Z,4.27
2018-08-13T11:41:16.585Z,3.30
2018-08-13T11:43:42.937Z,2.70
2018-08-13T11:46:09.408Z,3.00
2018-08-13T11:48:35.763Z,3.60
2018-08-13T11:51:02.196Z,4.03
2018-08-13T11:53:28.539Z,3.23
2018-08-13T11:55:55.043Z,3.40
2018-08-13T11:58:21.455Z,3.80
2018-08-13T12:00:47.848Z,3.40
2018-08-13T12:03:14.266Z,3.23
2018-08-13T12:05:40.668Z,3.43
2018-08-13T12:08:07.049Z,2.90
2018-08-13T12:10:34.643Z,3.50
2018-08-13T12:13:01.629Z,3.50
2018-08-13T12:15:28.069Z,3.33
2018-08-13T12:17:54.474Z,3.30
2018-08-13T12:20:20.888Z,3.20
2018-08-13T12:22:47.288Z,3.00
2018-08-13T12:25:13.954Z,3.03
2018-08-13T12:27:40.350Z,3.20
2018-08-13T12:30:06.841Z,3.40
2018-08-13T12:32:33.413Z,3.37
2018-08-13T12:35:00.015Z,3.60
2018-08-13T12:37:26.390Z,2.90
2018-08-13T12:39:52.849Z,2.90
2018-08-13T12:42:19.332Z,3.00
2018-08-13T12:44:45.758Z,3.40
2018-08-13T12:47:12.157Z,2.80
2018-08-13T12:49:38.615Z,3.40
2018-08-13T12:52:05.016Z,2.97
2018-08-13T12:54:31.538Z,3.10
2018-08-13T12:56:58.019Z,4.43
2018-08-13T12:59:24.533Z,2.90
2018-08-13T13:01:50.887Z,3.10
2018-08-13T13:04:17.319Z,2.90
2018-08-13T13:06:43.855Z,3.33
2018-08-13T13:09:10.319Z,3.50
2018-08-13T13:11:36.838Z,3.60
2018-08-13T13:14:03.217Z,3.30
2018-08-13T13:16:29.660Z,4.03
2018-08-13T13:18:56.114Z,3.33
2018-08-13T13:21:22.524Z,2.90
2018-08-13T13:23:48.958Z,3.33
2018-08-13T13:26:15.313Z,3.20
2018-08-13T13:28:41.695Z,3.40
2018-08-13T13:31:08.071Z,3.30
2018-08-13T13:33:34.483Z,3.50
2018-08-13T13:36:00.940Z,3.93
2018-08-13T13:38:27.288Z,3.07
2018-08-13T13:40:53.700Z,3.80
2018-08-13T13:43:20.125Z,3.53
2018-08-13T13:45:46.550Z,3.47
2018-08-13T13:48:12.891Z,3.60
2018-08-13T13:50:39.233Z,3.97
2018-08-13T13:53:05.624Z,3.10
2018-08-13T13:55:32.023Z,4.63
2018-08-13T13:57:58.457Z,4.07
2018-08-13T14:00:24.819Z,3.33
2018-08-13T14:02:51.271Z,3.67
2018-08-13T14:05:17.607Z,3.47
2018-08-13T14:07:43.968Z,3.60
2018-08-13T14:10:10.391Z,3.60
2018-08-13T14:12:36.766Z,3.30
2018-08-13T14:15:03.111Z,3.70
2018-08-13T14:17:29.560Z,3.50
2018-08-13T14:19:56.041Z,3.13
2018-08-13T14:22:22.497Z,3.00
2018-08-13T14:24:48.910Z,3.00
2018-08-13T14:27:15.258Z,3.73
2018-08-13T14:29:41.762Z,3.40
2018-08-13T14:32:08.196Z,3.73
2018-08-13T14:34:34.606Z,3.27
2018-08-13T14:37:00.958Z,3.30
2018-08-13T14:39:27.358Z,3.20
2018-08-13T14:41:53.762Z,2.77
2018-08-13T14:44:20.288Z,3.30
2018-08-13T14:46:46.712Z,3.50
2018-08-13T14:49:13.123Z,2.97
2018-08-13T14:51:40.494Z,3.00
2018-08-13T14:54:06.965Z,3.57
2018-08-13T14:56:33.415Z,3.13
2018-08-13T14:58:59.778Z,3.43
2018-08-13T15:01:26.227Z,3.53
2018-08-13T15:03:52.863Z,3.70
2018-08-13T15:06:19.490Z,3.13
2018-08-13T15:08:46.016Z,3.17
2018-08-13T15:11:12.500Z,3.47
2018-08-13T15:13:38.934Z,3.33
2018-08-13T15:16:05.297Z,3.20
2018-08-13T15:18:31.673Z,3.33
2018-08-13T15:20:58.295Z,3.27
2018-08-13T15:23:24.661Z,3.20
2018-08-13T15:25:51.056Z,3.00
2018-08-13T15:28:17.489Z,3.23
2018-08-13T15:30:44.371Z,3.10
2018-08-13T15:33:10.948Z,2.80
2018-08-13T15:35:37.322Z,2.83
2018-08-13T15:38:03.711Z,3.03
2018-08-13T15:40:30.084Z,3.10
2018-08-13T15:42:56.433Z,2.70
2018-08-13T15:45:22.807Z,2.73
2018-08-13T15:47:49.288Z,3.63
2018-08-13T15:50:15.668Z,2.60
2018-08-13T15:52:42.065Z,2.70
2018-08-13T15:55:08.461Z,3.00
2018-08-13T15:57:34.895Z,3.30
2018-08-13T16:00:01.294Z,2.87
2018-08-13T16:02:27.633Z,3.00
2018-08-13T16:04:53.965Z,2.80
2018-08-13T16:07:20.414Z,2.83
2018-08-13T16:09:46.951Z,3.10
2018-08-13T16:12:13.406Z,3.07
2018-08-13T16:14:39.742Z,3.17
2018-08-13T16:17:06.090Z,2.87
2018-08-13T16:19:32.481Z,3.20
2018-08-13T16:21:58.846Z,2.77
2018-08-13T16:24:25.219Z,2.80
2018-08-13T16:26:51.624Z,2.77
2018-08-13T16:29:18.010Z,2.80
2018-08-13T16:31:44.342Z,2.97
2018-08-13T16:34:10.685Z,2.97
2018-08-13T16:36:37.062Z,3.00
2018-08-13T16:39:03.451Z,2.87
2018-08-13T16:41:29.848Z,2.80
2018-08-13T16:43:56.240Z,2.80
2018-08-13T16:46:22.734Z,2.60
2018-08-13T16:48:49.079Z,2.80
2018-08-13T16:51:15.575Z,2.93
2018-08-13T16:53:41.954Z,3.23
2018-08-13T16:56:08.350Z,2.77
2018-08-13T16:58:34.704Z,2.40
2018-08-13T17:01:01.039Z,2.67
2018-08-13T17:03:27.431Z,2.90
2018-08-13T17:05:53.801Z,2.87
2018-08-13T17:08:20.219Z,2.77
2018-08-13T17:10:46.603Z,2.70
2018-08-13T17:13:13.021Z,2.70
2018-08-13T17:15:39.496Z,2.83
2018-08-13T17:18:05.823Z,3.00
2018-08-13T17:20:32.147Z,2.97
2018-08-13T17:22:58.481Z,2.87
2018-08-13T17:25:24.857Z,2.83
2018-08-13T17:27:51.266Z,2.80
2018-08-13T17:30:17.606Z,2.70
2018-08-13T17:32:43.963Z,2.60
2018-08-13T17:35:10.307Z,3.10
2018-08-13T17:37:36.655Z,2.87
2018-08-13T17:40:03.066Z,3.10
2018-08-13T17:42:29.419Z,2.60
2018-08-13T17:44:55.761Z,2.87
2018-08-13T17:47:22.093Z,2.90
2018-08-13T17:49:48.433Z,2.73
2018-08-13T17:52:14.812Z,2.53
2018-08-13T17:54:41.142Z,3.00
2018-08-13T17:57:08.347Z,2.73
2018-08-13T17:59:34.774Z,3.10
2018-08-13T18:02:01.100Z,2.70
2018-08-13T18:04:27.436Z,3.10
2018-08-13T18:06:53.767Z,3.10
2018-08-13T18:09:20.127Z,2.70
2018-08-13T18:11:46.465Z,2.83
2018-08-13T18:14:12.946Z,2.90
2018-08-13T18:16:39.321Z,2.63
2018-08-13T18:19:05.658Z,3.00
2018-08-13T18:21:32.012Z,2.80
2018-08-13T18:23:58.382Z,2.90
2018-08-13T18:26:24.821Z,2.73
2018-08-13T18:28:51.252Z,2.70
2018-08-13T18:31:17.590Z,2.77
2018-08-13T18:33:43.982Z,2.63
2018-08-13T18:36:10.384Z,2.87
2018-08-13T18:38:36.748Z,2.53
2018-08-13T18:41:03.078Z,2.70
2018-08-13T18:43:29.420Z,2.90
2018-08-13T18:45:55.784Z,3.00
2018-08-13T18:48:22.137Z,2.83
2018-08-13T18:50:48.455Z,2.97
2018-08-13T18:53:14.916Z,3.27
2018-08-13T18:55:41.261Z,2.80
2018-08-13T18:58:07.596Z,2.77
2018-08-13T19:00:33.928Z,2.87
2018-08-13T19:03:00.324Z,2.40
2018-08-13T19:05:26.731Z,2.87
2018-08-13T19:07:53.127Z,2.60
2018-08-13T19:10:19.450Z,2.40
2018-08-13T19:12:45.786Z,3.03
2018-08-13T19:15:12.188Z,2.57
2018-08-13T19:17:38.620Z,2.60
2018-08-13T19:20:04.963Z,2.73
2018-08-13T19:22:31.363Z,2.80
2018-08-13T19:24:57.728Z,2.70
2018-08-13T19:27:24.100Z,2.70
2018-08-13T19:29:50.493Z,2.80
2018-08-13T19:32:16.927Z,3.10
2018-08-13T19:34:43.284Z,2.80
2018-08-13T19:37:09.628Z,2.50
2018-08-13T19:39:35.988Z,2.80
2018-08-13T19:42:02.393Z,2.80
2018-08-13T19:44:28.825Z,2.80
2018-08-13T19:46:55.181Z,2.50
2018-08-13T19:49:21.552Z,2.40
2018-08-13T19:51:47.903Z,2.83
2018-08-13T19:54:14.235Z,2.50
2018-08-13T19:56:40.673Z,2.50
2018-08-13T19:59:07.032Z,2.60
2018-08-13T20:01:33.348Z,3.10
2018-08-13T20:03:59.721Z,2.30
2018-08-13T20:06:26.180Z,2.50
2018-08-13T20:08:52.574Z,2.30
2018-08-13T20:11:18.982Z,2.60
2018-08-13T20:13:45.366Z,2.60
2018-08-13T20:16:11.749Z,2.73
2018-08-13T20:18:38.132Z,2.30
2018-08-13T20:21:04.557Z,2.50
2018-08-13T20:23:30.881Z,2.07
2018-08-13T20:25:57.215Z,2.40
2018-08-13T20:28:23.574Z,2.47
2018-08-13T20:30:50.236Z,2.60
2018-08-13T20:33:16.591Z,2.67
2018-08-13T20:35:42.953Z,2.30
2018-08-13T20:38:09.353Z,2.30
2018-08-13T20:40:35.680Z,2.53
2018-08-13T20:43:02.094Z,2.60
2018-08-13T20:45:28.452Z,2.43
2018-08-13T20:47:55.197Z,2.50
2018-08-13T20:50:21.564Z,2.60
2018-08-13T20:52:47.911Z,2.33
2018-08-13T20:55:14.309Z,2.60
2018-08-13T20:57:40.665Z,2.43
2018-08-13T21:00:06.991Z,2.20
2018-08-13T21:02:33.364Z,2.77
2018-08-13T21:04:59.841Z,2.13
2018-08-13T21:07:26.182Z,2.30
2018-08-13T21:09:52.534Z,2.50
2018-08-13T21:12:18.869Z,2.50
2018-08-13T21:14:45.201Z,2.30
2018-08-13T21:17:11.537Z,2.50
2018-08-13T21:19:37.926Z,2.27
2018-08-13T21:22:04.305Z,2.47
2018-08-13T21:24:30.687Z,2.47
2018-08-13T21:26:57.028Z,2.53
2018-08-13T21:29:23.365Z,2.37
2018-08-13T21:31:49.697Z,2.37
2018-08-13T21:34:16.090Z,2.40
2018-08-13T21:36:42.458Z,2.63
2018-08-13T21:39:08.840Z,2.20
2018-08-13T21:41:35.183Z,2.40
2018-08-13T21:44:01.527Z,2.00
2018-08-13T21:46:27.858Z,2.13
2018-08-13T21:48:54.183Z,2.13
2018-08-13T21:51:20.536Z,2.40
2018-08-13T21:53:46.859Z,2.30
2018-08-13T21:56:13.512Z,2.40
2018-08-13T21:58:39.954Z,2.37
2018-08-13T22:01:06.300Z,2.27
2018-08-13T22:03:32.635Z,2.43
2018-08-13T22:05:59.137Z,1.97
2018-08-13T22:08:25.635Z,2.40
2018-08-13T22:10:52.034Z,2.27
2018-08-13T22:13:18.447Z,2.63
2018-08-13T22:15:44.759Z,2.20
2018-08-13T22:18:11.092Z,2.47
2018-08-13T22:20:37.489Z,2.37
2018-08-13T22:23:03.843Z,2.60
2018-08-13T22:25:30.178Z,2.10
2018-08-13T22:27:56.554Z,2.30
2018-08-13T22:30:22.890Z,2.33
2018-08-13T22:32:49.283Z,2.10
2018-08-13T22:35:15.676Z,2.43
2018-08-13T22:37:42.169Z,2.53
2018-08-13T22:40:08.528Z,2.40
2018-08-13T22:42:34.940Z,2.30
2018-08-13T22:45:01.392Z,2.20
2018-08-13T22:47:27.848Z,2.50
2018-08-13T22:49:54.199Z,2.30
2018-08-13T22:52:20.758Z,2.50
2018-08-13T22:54:47.116Z,2.17
2018-08-13T22:57:13.512Z,2.07
2018-08-13T22:59:39.899Z,2.20
2018-08-13T23:02:06.231Z,2.40
2018-08-13T23:04:32.635Z,2.30
2018-08-13T23:06:59.010Z,2.30
2018-08-13T23:09:25.443Z,2.07
2018-08-13T23:11:51.768Z,1.97
2018-08-13T23:14:18.234Z,2.40
2018-08-13T23:16:44.667Z,2.03
2018-08-13T23:19:11.012Z,2.30
2018-08-13T23:21:37.344Z,2.13
2018-08-13T23:24:03.771Z,2.23
2018-08-13T23:26:30.175Z,2.27
2018-08-13T23:28:56.503Z,2.47
2018-08-13T23:31:22.851Z,2.37
2018-08-13T23:33:49.290Z,2.00
2018-08-13T23:36:15.648Z,2.00
2018-08-13T23:38:42.053Z,2.20
2018-08-13T23:41:08.385Z,2.10
2018-08-13T23:43:34.785Z,2.40
2018-08-13T23:46:01.223Z,2.43
2018-08-13T23:48:27.573Z,2.17
2018-08-13T23:50:53.912Z,2.13
2018-08-13T23:53:20.308Z,2.60
2018-08-13T23:55:46.737Z,2.40
2018-08-13T23:58:13.153Z,2.27
